Terminal Aerodrome Forecast
Issued by NWS Quad Cities IA IL

Home | Current Version | Previous Version | Text Only | Print | Product List | Glossary On
Versions: 1 2 3 4 5 6 7 8 9 10 11 12 13 14 15 16
000
FTUS43 KDVN 062300
TAFDBQ
TAF
KDBQ 062329Z 0700/0724 22007KT P6SM SCT200
     FM070300 25006KT P6SM BKN100
     FM071500 28013G20KT P6SM SCT050=

USA.gov is the U.S. government's official web portal to all federal, state and local government web resources and services.